createdAt,value
2022-09-20T00:00:07.730Z,99657.41
2022-09-20T00:00:40.002Z,99656.84
2022-09-20T00:01:15.249Z,99652.78
2022-09-20T00:01:47.192Z,99649.34
2022-09-20T00:02:19.205Z,99649.50
2022-09-20T00:02:51.210Z,99647.69
2022-09-20T00:03:23.071Z,99650.44
2022-09-20T00:03:59.570Z,99648.69
2022-09-20T00:04:31.511Z,99650.59
2022-09-20T00:05:05.040Z,99643.75
2022-09-20T00:05:38.853Z,99649.78
2022-09-20T00:06:15.701Z,99640.34
2022-09-20T00:06:47.875Z,99650.16
2022-09-20T00:07:19.895Z,99649.13
2022-09-20T00:07:51.779Z,99648.97
2022-09-20T00:08:23.597Z,99649.56
2022-09-20T00:08:56.694Z,99647.22
2022-09-20T00:09:28.563Z,99641.84
2022-09-20T00:10:00.458Z,99656.53
2022-09-20T00:10:38.026Z,99649.72
2022-09-20T00:11:15.475Z,99642.87
2022-09-20T00:11:47.666Z,99642.31
2022-09-20T00:12:19.528Z,99650.44
2022-09-20T00:12:51.521Z,99643.44
2022-09-20T00:13:23.374Z,99648.97
2022-09-20T00:13:57.278Z,99651.94
2022-09-20T00:14:29.134Z,99649.41
2022-09-20T00:15:00.975Z,99654.34
2022-09-20T00:15:34.225Z,99651.66
2022-09-20T00:16:11.244Z,99646.44
2022-09-20T00:16:43.386Z,99644.47
2022-09-20T00:17:15.581Z,99647.88
2022-09-20T00:17:47.613Z,99652.47
2022-09-20T00:18:19.516Z,99645.78
2022-09-20T00:18:53.580Z,99646.78
2022-09-20T00:19:25.633Z,99641.84
2022-09-20T00:19:57.736Z,99649.13
2022-09-20T00:20:30.623Z,99654.66
2022-09-20T00:21:03.453Z,99645.28
2022-09-20T00:21:36.473Z,99650.72
2022-09-20T00:22:08.373Z,99647.47
2022-09-20T00:22:40.572Z,99641.78
2022-09-20T00:23:12.476Z,99638.59
2022-09-20T00:23:45.081Z,99643.91
2022-09-20T00:24:17.216Z,99643.47
2022-09-20T00:24:49.244Z,99639.41
2022-09-20T00:25:22.516Z,99651.00
2022-09-20T00:25:57.001Z,99644.13
2022-09-20T00:26:30.705Z,99642.87
2022-09-20T00:27:03.529Z,99645.19
2022-09-20T00:27:35.371Z,99635.31
2022-09-20T00:28:08.435Z,99647.22
2022-09-20T00:28:41.581Z,99636.31
2022-09-20T00:29:14.364Z,99638.47
2022-09-20T00:29:46.240Z,99640.13
2022-09-20T00:30:18.368Z,99643.16
2022-09-20T00:30:52.054Z,99640.34
2022-09-20T00:31:24.833Z,99638.97
2022-09-20T00:31:56.800Z,99636.13
2022-09-20T00:32:28.699Z,99635.75
2022-09-20T00:33:00.914Z,99626.91
2022-09-20T00:33:51.894Z,99631.47
2022-09-20T00:34:42.658Z,99630.66
2022-09-20T00:35:14.524Z,99641.00
2022-09-20T00:35:47.341Z,99637.06
2022-09-20T00:36:19.318Z,99627.78
2022-09-20T00:36:51.153Z,99626.97
2022-09-20T00:37:23.083Z,99625.75
2022-09-20T00:37:55.061Z,99629.31
2022-09-20T00:38:26.907Z,99626.16
2022-09-20T00:39:02.460Z,99634.31
2022-09-20T00:39:34.500Z,99619.78
2022-09-20T00:40:10.446Z,99629.38
2022-09-20T00:40:44.669Z,99625.16
2022-09-20T00:41:16.639Z,99629.72
2022-09-20T00:41:50.187Z,99630.38
2022-09-20T00:42:28.157Z,99633.50
2022-09-20T00:43:00.102Z,99632.28
2022-09-20T00:43:41.045Z,99635.69
2022-09-20T00:44:48.043Z,99636.28
2022-09-20T00:45:31.048Z,99631.03
2022-09-20T00:46:04.087Z,99641.88
2022-09-20T00:46:43.469Z,99627.41
2022-09-20T00:47:44.758Z,99636.50
2022-09-20T00:48:28.403Z,99635.78
2022-09-20T00:49:25.629Z,99632.84
2022-09-20T00:50:30.566Z,99626.19
2022-09-20T00:51:09.012Z,99637.50
2022-09-20T00:51:46.013Z,99628.22
2022-09-20T00:52:20.564Z,99638.69
2022-09-20T00:53:08.448Z,99634.75
2022-09-20T00:53:45.469Z,99630.59
2022-09-20T00:54:20.854Z,99633.16
2022-09-20T00:54:56.487Z,99631.09
2022-09-20T00:55:30.480Z,99632.88
2022-09-20T00:56:22.269Z,99631.53
2022-09-20T00:56:54.215Z,99635.63
2022-09-20T00:57:26.493Z,99635.63
2022-09-20T00:58:00.295Z,99625.06
2022-09-20T00:58:37.119Z,99635.91
2022-09-20T00:59:18.049Z,99627.78
2022-09-20T00:59:53.050Z,99633.16
2022-09-20T01:00:27.461Z,99627.94
2022-09-20T01:00:59.971Z,99627.94
2022-09-20T01:01:32.682Z,99631.34
2022-09-20T01:02:25.575Z,99627.78
2022-09-20T01:03:01.547Z,99634.44
2022-09-20T01:03:36.603Z,99630.09
2022-09-20T01:04:12.260Z,99629.56
2022-09-20T01:04:49.231Z,99636.03
2022-09-20T01:05:22.049Z,99638.38
2022-09-20T01:05:57.115Z,99633.16
2022-09-20T01:06:32.894Z,99634.31
2022-09-20T01:07:08.123Z,99633.16
2022-09-20T01:07:43.007Z,99634.16
2022-09-20T01:08:15.626Z,99639.03
2022-09-20T01:08:52.116Z,99636.81
2022-09-20T01:09:25.164Z,99638.50
2022-09-20T01:09:58.301Z,99641.84
2022-09-20T01:10:31.759Z,99635.81
2022-09-20T01:11:04.097Z,99638.72
2022-09-20T01:11:37.598Z,99636.19
2022-09-20T01:12:18.238Z,99635.53
2022-09-20T01:12:53.136Z,99637.34
2022-09-20T01:13:25.098Z,99643.75
2022-09-20T01:13:57.936Z,99637.56
2022-09-20T01:14:30.491Z,99639.69
2022-09-20T01:15:07.778Z,99639.53
2022-09-20T01:15:40.544Z,99636.13
2022-09-20T01:16:16.028Z,99632.12
2022-09-20T01:16:48.608Z,99637.94
2022-09-20T01:17:23.958Z,99629.66
2022-09-20T01:17:58.391Z,99635.47
2022-09-20T01:18:33.274Z,99629.81
2022-09-20T01:19:33.053Z,99638.38
2022-09-20T01:20:16.237Z,99635.63
2022-09-20T01:20:49.288Z,99630.75
2022-09-20T01:21:21.593Z,99636.06
2022-09-20T01:21:54.125Z,99642.87
2022-09-20T01:22:41.660Z,99636.56
2022-09-20T01:23:28.647Z,99635.34
2022-09-20T01:24:03.175Z,99641.41
2022-09-20T01:25:03.190Z,99630.81
2022-09-20T01:25:44.083Z,99631.97
2022-09-20T01:26:40.049Z,99638.53
2022-09-20T01:27:29.323Z,99631.25
2022-09-20T01:28:01.245Z,99637.31
2022-09-20T01:28:34.169Z,99636.63
2022-09-20T01:29:33.913Z,99630.41
2022-09-20T01:30:18.667Z,99635.97
2022-09-20T01:30:50.468Z,99633.59
2022-09-20T01:31:40.917Z,99626.75
2022-09-20T01:32:23.690Z,99630.84
2022-09-20T01:33:12.108Z,99627.47
2022-09-20T01:33:54.018Z,99625.00
2022-09-20T01:34:58.255Z,99626.44
2022-09-20T01:35:34.419Z,99621.06
2022-09-20T01:36:07.645Z,99622.91
2022-09-20T01:36:48.740Z,99622.56
2022-09-20T01:37:28.130Z,99626.75
2022-09-20T01:38:17.691Z,99624.94
2022-09-20T01:39:28.356Z,99624.78
2022-09-20T01:40:20.779Z,99621.63
2022-09-20T01:40:59.623Z,99619.63
2022-09-20T01:41:48.793Z,99620.53
2022-09-20T01:42:30.946Z,99621.38
2022-09-20T01:43:16.452Z,99621.63
2022-09-20T01:44:17.754Z,99627.78
2022-09-20T01:44:58.438Z,99620.87
2022-09-20T01:45:32.775Z,99618.03
2022-09-20T01:46:17.079Z,99622.41
2022-09-20T01:47:00.127Z,99628.06
2022-09-20T01:47:44.208Z,99627.25
2022-09-20T01:48:33.962Z,99636.28
2022-09-20T01:49:14.007Z,99629.59
2022-09-20T01:50:08.015Z,99632.41
2022-09-20T01:51:07.992Z,99630.09
2022-09-20T01:52:10.890Z,99635.34
2022-09-20T01:53:10.901Z,99634.53
2022-09-20T01:54:23.847Z,99631.38
2022-09-20T01:55:02.026Z,99634.91
2022-09-20T01:56:04.743Z,99631.41
2022-09-20T01:57:01.712Z,99629.06
2022-09-20T01:57:57.271Z,99626.47
2022-09-20T01:59:22.085Z,99623.75
2022-09-20T02:00:08.307Z,99627.69
2022-09-20T02:01:10.474Z,99628.50
2022-09-20T02:01:54.371Z,99632.56
2022-09-20T02:02:51.527Z,99637.81
2022-09-20T02:03:41.793Z,99631.69
2022-09-20T02:04:43.220Z,99629.31
2022-09-20T02:05:17.936Z,99631.53
2022-09-20T02:06:01.713Z,99635.47
2022-09-20T02:07:12.210Z,99629.00
2022-09-20T02:07:52.314Z,99634.00
2022-09-20T02:08:53.336Z,99634.84
2022-09-20T02:09:30.902Z,99636.78
2022-09-20T02:10:08.531Z,99637.72
2022-09-20T02:10:53.419Z,99638.94
2022-09-20T02:11:59.289Z,99635.78
2022-09-20T02:12:56.956Z,99639.53
2022-09-20T02:13:45.826Z,99641.41
2022-09-20T02:14:39.307Z,99641.66
2022-09-20T02:15:44.424Z,99643.75
2022-09-20T02:16:39.279Z,99645.00
2022-09-20T02:17:20.245Z,99641.41
2022-09-20T02:18:12.625Z,99637.81
2022-09-20T02:19:25.005Z,99638.66
2022-09-20T02:20:02.728Z,99645.94
2022-09-20T02:21:16.067Z,99639.81
2022-09-20T02:22:02.704Z,99637.66
2022-09-20T02:23:03.893Z,99639.81
2022-09-20T02:23:56.905Z,99640.63
2022-09-20T02:24:50.912Z,99636.81
2022-09-20T02:25:41.129Z,99639.31
2022-09-20T02:26:33.577Z,99640.25
2022-09-20T02:27:23.977Z,99645.50
2022-09-20T02:28:11.797Z,99647.81
2022-09-20T02:29:02.004Z,99648.38
2022-09-20T02:30:08.025Z,99655.06
2022-09-20T02:30:52.380Z,99650.59
2022-09-20T02:31:52.219Z,99652.16
2022-09-20T02:32:49.529Z,99651.81
2022-09-20T02:33:34.415Z,99659.19
2022-09-20T02:34:25.089Z,99652.16
2022-09-20T02:35:35.401Z,99655.66
2022-09-20T02:36:30.847Z,99651.88
2022-09-20T02:37:21.537Z,99656.50
2022-09-20T02:38:14.401Z,99653.09
2022-09-20T02:39:03.028Z,99649.84
2022-09-20T02:39:52.504Z,99653.91
2022-09-20T02:41:06.744Z,99657.53
2022-09-20T02:41:51.494Z,99655.94
2022-09-20T02:42:33.387Z,99656.94
2022-09-20T02:43:14.837Z,99656.31
2022-09-20T02:44:08.568Z,99660.75
2022-09-20T02:45:09.230Z,99665.59
2022-09-20T02:45:44.212Z,99659.25
2022-09-20T02:46:55.021Z,99658.97
2022-09-20T02:47:34.411Z,99662.75
2022-09-20T02:48:06.385Z,99666.16
2022-09-20T02:49:08.628Z,99659.53
2022-09-20T02:50:15.025Z,99664.56
2022-09-20T02:50:59.836Z,99667.00
2022-09-20T02:51:41.180Z,99668.31
2022-09-20T02:52:25.173Z,99667.25
2022-09-20T02:53:06.195Z,99664.44
2022-09-20T02:54:01.127Z,99667.41
2022-09-20T02:54:55.001Z,99662.47
2022-09-20T02:56:05.086Z,99667.84
2022-09-20T02:56:54.553Z,99678.88
2022-09-20T02:57:29.229Z,99673.66
2022-09-20T02:58:19.531Z,99676.41
2022-09-20T02:59:10.118Z,99668.56
2022-09-20T02:59:46.960Z,99669.12
2022-09-20T03:00:30.283Z,99671.47
2022-09-20T03:01:31.568Z,99666.25
2022-09-20T03:02:41.552Z,99679.53
2022-09-20T03:03:26.604Z,99675.38
2022-09-20T03:04:25.819Z,99677.50
2022-09-20T03:05:16.748Z,99669.09
2022-09-20T03:05:57.314Z,99673.56
2022-09-20T03:07:02.256Z,99677.28
2022-09-20T03:07:43.827Z,99674.84
2022-09-20T03:08:48.870Z,99674.50
2022-09-20T03:09:35.720Z,99671.22
2022-09-20T03:10:34.661Z,99667.56
2022-09-20T03:11:47.636Z,99671.63
2022-09-20T03:12:19.518Z,99667.03
2022-09-20T03:13:12.459Z,99666.16
2022-09-20T03:14:23.351Z,99672.47
2022-09-20T03:15:35.758Z,99665.37
2022-09-20T03:16:07.874Z,99663.72
2022-09-20T03:17:09.261Z,99662.94
2022-09-20T03:17:42.545Z,99668.56
2022-09-20T03:18:29.509Z,99664.44
2022-09-20T03:19:35.853Z,99667.69
2022-09-20T03:20:19.555Z,99664.28
2022-09-20T03:21:25.093Z,99664.28
2022-09-20T03:22:14.680Z,99663.25
2022-09-20T03:23:12.343Z,99663.22
2022-09-20T03:24:05.564Z,99670.88
2022-09-20T03:25:09.528Z,99663.81
2022-09-20T03:25:47.119Z,99673.97
2022-09-20T03:26:42.534Z,99666.31
2022-09-20T03:27:29.786Z,99668.59
2022-09-20T03:28:28.499Z,99671.22
2022-09-20T03:29:33.022Z,99670.44
2022-09-20T03:30:16.711Z,99678.88
2022-09-20T03:30:58.785Z,99681.22
2022-09-20T03:31:55.338Z,99676.62
2022-09-20T03:33:06.183Z,99676.62
2022-09-20T03:33:50.446Z,99679.22
2022-09-20T03:34:48.601Z,99678.12
2022-09-20T03:35:49.400Z,99674.13
2022-09-20T03:37:06.040Z,99673.53
2022-09-20T03:38:05.981Z,99675.53
2022-09-20T03:39:12.302Z,99660.03
2022-09-20T03:40:21.998Z,99667.69
2022-09-20T03:41:22.131Z,99670.22
2022-09-20T03:42:14.171Z,99670.38
2022-09-20T03:43:04.644Z,99665.00
2022-09-20T03:43:40.606Z,99665.53
2022-09-20T03:44:37.828Z,99674.91
2022-09-20T03:45:26.259Z,99672.28
2022-09-20T03:46:27.003Z,99672.94
2022-09-20T03:47:19.563Z,99668.47
2022-09-20T03:48:01.134Z,99680.06
2022-09-20T03:49:07.521Z,99673.84
2022-09-20T03:50:13.202Z,99673.87
2022-09-20T03:51:04.210Z,99677.41
2022-09-20T03:51:57.217Z,99681.87
2022-09-20T03:52:29.943Z,99674.63
2022-09-20T03:53:13.916Z,99672.81
2022-09-20T03:54:19.179Z,99681.44
2022-09-20T03:55:15.803Z,99679.25
2022-09-20T03:56:09.177Z,99676.62
2022-09-20T03:57:11.004Z,99678.44
2022-09-20T03:58:11.081Z,99670.00
2022-09-20T03:58:57.839Z,99677.78
2022-09-20T03:59:42.072Z,99669.91
2022-09-20T04:00:22.744Z,99680.66
2022-09-20T04:01:25.017Z,99679.06
2022-09-20T04:02:34.203Z,99671.41
2022-09-20T04:03:28.929Z,99679.97
2022-09-20T04:04:14.348Z,99669.59
2022-09-20T04:05:23.131Z,99677.62
2022-09-20T04:06:36.896Z,99682.25
2022-09-20T04:07:23.617Z,99681.06
2022-09-20T04:08:21.457Z,99673.63
2022-09-20T04:09:05.310Z,99675.44
2022-09-20T04:09:52.553Z,99680.22
2022-09-20T04:10:27.228Z,99685.03
2022-09-20T04:11:19.983Z,99679.38
2022-09-20T04:12:13.840Z,99675.81
2022-09-20T04:12:51.692Z,99678.66
2022-09-20T04:13:40.159Z,99684.03
2022-09-20T04:14:49.944Z,99683.00
2022-09-20T04:16:00.252Z,99683.28
2022-09-20T04:16:32.463Z,99683.63
2022-09-20T04:17:47.564Z,99686.81
2022-09-20T04:18:43.839Z,99690.09
2022-09-20T04:19:37.778Z,99684.25
2022-09-20T04:20:20.746Z,99682.47
2022-09-20T04:21:31.875Z,99682.84
2022-09-20T04:22:07.473Z,99682.66
2022-09-20T04:22:41.354Z,99697.91
2022-09-20T04:23:29.888Z,99690.47
2022-09-20T04:24:29.781Z,99691.09
2022-09-20T04:25:17.501Z,99685.03
2022-09-20T04:25:51.422Z,99685.19
2022-09-20T04:26:30.065Z,99687.63
2022-09-20T04:27:21.137Z,99689.72
2022-09-20T04:28:09.688Z,99694.72
2022-09-20T04:28:48.696Z,99692.28
2022-09-20T04:29:23.142Z,99691.88
2022-09-20T04:30:17.468Z,99691.88
2022-09-20T04:30:55.406Z,99691.88
2022-09-20T04:31:30.332Z,99693.50
2022-09-20T04:32:24.235Z,99685.44
2022-09-20T04:33:31.343Z,99693.75
2022-09-20T04:34:09.069Z,99692.28
2022-09-20T04:35:14.430Z,99686.06
2022-09-20T04:36:11.127Z,99684.44
2022-09-20T04:37:05.036Z,99688.13
2022-09-20T04:37:38.441Z,99691.69
2022-09-20T04:38:16.780Z,99688.63
2022-09-20T04:38:57.908Z,99687.25
2022-09-20T04:40:09.968Z,99689.50
2022-09-20T04:41:03.996Z,99687.00
2022-09-20T04:41:53.984Z,99681.00
2022-09-20T04:43:13.558Z,99693.47
2022-09-20T04:43:51.168Z,99688.59
2022-09-20T04:44:38.081Z,99691.62
2022-09-20T04:45:54.364Z,99680.03
2022-09-20T04:46:55.827Z,99689.44
2022-09-20T04:47:58.336Z,99681.81
2022-09-20T04:48:42.534Z,99687.03
2022-09-20T04:49:31.510Z,99684.19
2022-09-20T04:50:12.623Z,99690.22
2022-09-20T04:51:40.390Z,99684.56
2022-09-20T04:52:30.456Z,99682.38
2022-09-20T04:53:23.366Z,99686.09
2022-09-20T04:54:25.507Z,99687.97
2022-09-20T04:55:03.465Z,99688.34
2022-09-20T04:55:59.095Z,99687.19
2022-09-20T04:57:06.046Z,99687.59
2022-09-20T04:57:53.936Z,99688.66
2022-09-20T04:58:53.562Z,99687.63
2022-09-20T04:59:28.863Z,99693.22
2022-09-20T05:00:12.828Z,99700.81
2022-09-20T05:01:16.939Z,99694.78
2022-09-20T05:02:40.034Z,99693.03
2022-09-20T05:03:42.619Z,99693.84
2022-09-20T05:04:58.712Z,99699.00
2022-09-20T05:05:36.787Z,99700.69
2022-09-20T05:06:27.199Z,99698.31
2022-09-20T05:07:36.649Z,99704.06
2022-09-20T05:08:45.692Z,99703.31
2022-09-20T05:09:29.448Z,99692.03
2022-09-20T05:10:41.141Z,99697.19
2022-09-20T05:11:30.582Z,99699.78
2022-09-20T05:12:29.750Z,99701.38
2022-09-20T05:13:22.114Z,99709.41
2022-09-20T05:14:13.035Z,99709.19
2022-09-20T05:15:08.200Z,99713.59
2022-09-20T05:16:02.354Z,99711.69
2022-09-20T05:16:58.208Z,99703.53
2022-09-20T05:17:44.797Z,99689.91
2022-09-20T05:18:35.121Z,99698.78
2022-09-20T05:19:13.157Z,99696.50
2022-09-20T05:20:01.545Z,99695.34
2022-09-20T05:20:45.747Z,99694.44
2022-09-20T05:22:02.028Z,99692.50
2022-09-20T05:22:58.754Z,99695.66
2022-09-20T05:24:03.023Z,99700.12
2022-09-20T05:24:52.602Z,99697.13
2022-09-20T05:25:42.921Z,99698.03
2022-09-20T05:26:36.122Z,99706.25
2022-09-20T05:27:11.278Z,99707.50
2022-09-20T05:28:07.391Z,99705.09
2022-09-20T05:29:10.156Z,99708.88
2022-09-20T05:30:04.984Z,99712.59
2022-09-20T05:30:45.550Z,99711.94
2022-09-20T05:31:30.898Z,99715.28
2022-09-20T05:32:18.459Z,99716.44
2022-09-20T05:33:00.148Z,99718.16
2022-09-20T05:34:03.428Z,99716.34
2022-09-20T05:34:42.476Z,99713.72
2022-09-20T05:35:32.732Z,99717.56
2022-09-20T05:36:23.631Z,99716.63
2022-09-20T05:37:09.113Z,99723.88
2022-09-20T05:37:51.991Z,99723.84
2022-09-20T05:39:34.362Z,99728.69
2022-09-20T05:40:24.798Z,99725.13
2022-09-20T05:41:34.073Z,99730.00
2022-09-20T05:42:30.108Z,99729.09
2022-09-20T05:43:16.758Z,99736.44
2022-09-20T05:43:57.700Z,99730.75
2022-09-20T05:45:00.710Z,99726.59
2022-09-20T05:45:35.591Z,99731.00
2022-09-20T05:46:41.064Z,99729.44
2022-09-20T05:47:40.300Z,99728.84
2022-09-20T05:48:18.213Z,99727.06
2022-09-20T05:49:18.244Z,99734.41
2022-09-20T05:50:27.303Z,99729.47
2022-09-20T05:51:45.768Z,99731.16
2022-09-20T05:52:43.119Z,99729.72
2022-09-20T05:53:36.397Z,99730.41
2022-09-20T05:54:27.209Z,99731.53
2022-09-20T05:55:40.160Z,99738.22
2022-09-20T05:56:36.440Z,99735.91
2022-09-20T05:57:56.534Z,99731.78
2022-09-20T05:58:46.134Z,99737.44
2022-09-20T05:59:42.868Z,99732.50
2022-09-20T06:00:24.577Z,99735.84
2022-09-20T06:01:27.035Z,99733.94
2022-09-20T06:02:36.710Z,99733.19
2022-09-20T06:03:17.493Z,99738.53
2022-09-20T06:03:55.713Z,99735.91
2022-09-20T06:04:42.145Z,99731.84
2022-09-20T06:05:22.878Z,99733.84
2022-09-20T06:06:03.831Z,99739.66
2022-09-20T06:06:57.608Z,99735.41
2022-09-20T06:07:56.892Z,99743.06
2022-09-20T06:08:35.832Z,99738.28
2022-09-20T06:09:22.799Z,99732.72
2022-09-20T06:10:15.283Z,99738.53
2022-09-20T06:11:12.335Z,99739.03
2022-09-20T06:11:47.140Z,99739.31
2022-09-20T06:12:52.524Z,99743.00
2022-09-20T06:13:33.080Z,99738.03
2022-09-20T06:14:36.611Z,99730.97
2022-09-20T06:15:45.247Z,99731.84
2022-09-20T06:16:39.702Z,99733.00
2022-09-20T06:17:24.339Z,99734.19
2022-09-20T06:18:04.905Z,99734.56
2022-09-20T06:18:43.040Z,99740.47
2022-09-20T06:19:23.673Z,99739.75
2022-09-20T06:20:19.880Z,99740.53
2022-09-20T06:21:19.584Z,99738.31
2022-09-20T06:21:52.761Z,99740.53
2022-09-20T06:22:31.215Z,99740.06
2022-09-20T06:23:05.541Z,99739.59
2022-09-20T06:23:37.575Z,99737.59
2022-09-20T06:24:37.957Z,99730.81
2022-09-20T06:25:09.709Z,99731.53
2022-09-20T06:26:02.046Z,99734.81
2022-09-20T06:26:37.174Z,99729.63
2022-09-20T06:27:24.380Z,99735.28
2022-09-20T06:27:59.021Z,99742.78
2022-09-20T06:28:35.131Z,99734.94
2022-09-20T06:29:13.199Z,99735.44
2022-09-20T06:29:52.403Z,99732.56
2022-09-20T06:30:34.941Z,99740.53
2022-09-20T06:31:10.195Z,99733.19
2022-09-20T06:31:42.085Z,99728.84
2022-09-20T06:32:17.536Z,99730.97
2022-09-20T06:32:59.118Z,99730.00
2022-09-20T06:33:31.358Z,99730.16
2022-09-20T06:34:10.500Z,99730.94
2022-09-20T06:34:42.348Z,99738.59
2022-09-20T06:35:14.309Z,99735.03
2022-09-20T06:36:24.383Z,99736.09
2022-09-20T06:38:13.629Z,99739.19
2022-09-20T06:39:32.432Z,99742.53
2022-09-20T06:40:28.611Z,99741.31
2022-09-20T06:41:20.783Z,99731.59
2022-09-20T06:41:53.611Z,99731.34
2022-09-20T06:42:27.339Z,99735.25
2022-09-20T06:43:00.799Z,99730.69
2022-09-20T06:43:32.707Z,99735.91
2022-09-20T06:44:06.446Z,99738.00
2022-09-20T06:44:43.281Z,99740.91
2022-09-20T06:45:15.174Z,99741.69
2022-09-20T06:45:48.402Z,99743.38
2022-09-20T06:46:20.871Z,99749.03
2022-09-20T06:46:55.765Z,99736.16
2022-09-20T06:47:27.606Z,99738.66
2022-09-20T06:48:02.280Z,99734.53
2022-09-20T06:48:34.441Z,99735.47
2022-09-20T06:49:09.559Z,99739.31
2022-09-20T06:49:42.418Z,99734.09
2022-09-20T06:50:17.327Z,99735.25
2022-09-20T06:50:50.024Z,99730.88
2022-09-20T06:51:23.659Z,99728.81
2022-09-20T06:51:55.873Z,99730.44
2022-09-20T06:52:28.173Z,99738.50
2022-09-20T06:53:00.229Z,99740.66
2022-09-20T06:53:35.332Z,99737.75
2022-09-20T06:54:12.279Z,99738.59
2022-09-20T06:54:50.218Z,99736.81
2022-09-20T06:55:30.330Z,99738.81
2022-09-20T06:56:02.589Z,99734.44
2022-09-20T06:56:36.807Z,99739.50
2022-09-20T06:57:10.517Z,99741.69
2022-09-20T06:57:42.441Z,99735.72
2022-09-20T06:58:14.998Z,99746.09
2022-09-20T06:58:47.120Z,99739.00
2022-09-20T06:59:19.272Z,99741.03
2022-09-20T06:59:51.110Z,99741.34
2022-09-20T07:00:23.243Z,99743.75
2022-09-20T07:00:55.521Z,99739.63
2022-09-20T07:01:30.430Z,99737.91
2022-09-20T07:02:02.746Z,99749.09
2022-09-20T07:02:34.663Z,99738.53
2022-09-20T07:03:07.137Z,99743.88
2022-09-20T07:03:39.348Z,99741.34
2022-09-20T07:04:11.199Z,99737.44
2022-09-20T07:04:44.630Z,99742.50
2022-09-20T07:05:18.101Z,99740.91
2022-09-20T07:05:50.137Z,99740.88
2022-09-20T07:06:21.983Z,99737.44
2022-09-20T07:07:02.121Z,99741.41
2022-09-20T07:07:36.000Z,99747.00
2022-09-20T07:08:07.971Z,99752.81
2022-09-20T07:08:39.803Z,99755.00
2022-09-20T07:09:11.702Z,99748.69
2022-09-20T07:09:43.863Z,99746.28
2022-09-20T07:10:16.108Z,99750.78
2022-09-20T07:10:48.202Z,99754.75
2022-09-20T07:11:20.381Z,99751.78
2022-09-20T07:11:52.212Z,99754.16
2022-09-20T07:12:24.731Z,99751.59
2022-09-20T07:13:01.810Z,99759.25
2022-09-20T07:13:34.173Z,99766.44
2022-09-20T07:14:07.497Z,99768.62
2022-09-20T07:14:40.025Z,99765.59
2022-09-20T07:15:12.172Z,99762.91
2022-09-20T07:15:44.306Z,99766.13
2022-09-20T07:16:16.566Z,99764.56
2022-09-20T07:16:48.501Z,99764.53
2022-09-20T07:17:22.117Z,99767.72
2022-09-20T07:17:54.088Z,99771.69
2022-09-20T07:18:25.928Z,99776.94
2022-09-20T07:18:57.860Z,99776.75
2022-09-20T07:19:29.811Z,99775.97
2022-09-20T07:20:01.930Z,99774.94
2022-09-20T07:20:35.105Z,99776.16
2022-09-20T07:21:17.599Z,99776.66
2022-09-20T07:21:49.501Z,99775.09
2022-09-20T07:22:21.328Z,99776.22
2022-09-20T07:22:53.704Z,99778.34
2022-09-20T07:23:27.212Z,99782.56
2022-09-20T07:23:59.050Z,99785.19
2022-09-20T07:24:33.690Z,99778.66
2022-09-20T07:25:06.003Z,99782.66
2022-09-20T07:25:38.349Z,99781.59
2022-09-20T07:26:20.943Z,99772.09
2022-09-20T07:27:01.485Z,99773.44
2022-09-20T07:27:33.352Z,99777.22
2022-09-20T07:28:05.220Z,99770.66
2022-09-20T07:28:37.101Z,99779.66
2022-09-20T07:29:09.617Z,99779.28
2022-09-20T07:29:41.499Z,99783.06
2022-09-20T07:30:14.713Z,99781.22
2022-09-20T07:30:47.797Z,99785.72
2022-09-20T07:31:22.899Z,99785.63
2022-09-20T07:31:56.144Z,99782.03
2022-09-20T07:32:28.145Z,99779.91
2022-09-20T07:33:00.660Z,99779.41
2022-09-20T07:33:32.695Z,99784.22
2022-09-20T07:34:04.547Z,99785.31
2022-09-20T07:34:36.440Z,99778.72
2022-09-20T07:35:10.090Z,99780.53
2022-09-20T07:35:41.908Z,99777.94
2022-09-20T07:36:15.118Z,99777.16
2022-09-20T07:36:48.007Z,99784.84
2022-09-20T07:37:20.226Z,99776.91
2022-09-20T07:37:57.881Z,99774.25
2022-09-20T07:38:29.719Z,99780.34
2022-09-20T07:39:01.593Z,99776.91
2022-09-20T07:39:33.427Z,99781.66
2022-09-20T07:40:05.773Z,99781.41
2022-09-20T07:40:37.693Z,99779.81
2022-09-20T07:41:10.643Z,99789.88
2022-09-20T07:41:46.600Z,99779.28
2022-09-20T07:42:18.444Z,99782.38
2022-09-20T07:42:54.219Z,99785.34
2022-09-20T07:43:30.246Z,99790.63
2022-09-20T07:44:20.924Z,99789.25
2022-09-20T07:44:53.194Z,99786.06
2022-09-20T07:45:25.597Z,99788.97
2022-09-20T07:45:59.358Z,99787.37
2022-09-20T07:46:36.144Z,99788.47
2022-09-20T07:47:14.053Z,99784.25
2022-09-20T07:47:46.680Z,99785.31
2022-09-20T07:48:18.564Z,99790.31
2022-09-20T07:48:50.392Z,99786.88
2022-09-20T07:49:22.603Z,99787.84
2022-09-20T07:49:55.410Z,99787.63
2022-09-20T07:50:27.285Z,99780.81
2022-09-20T07:51:05.720Z,99787.56
2022-09-20T07:51:40.351Z,99790.28
2022-09-20T07:52:14.664Z,99784.75
2022-09-20T07:52:46.698Z,99790.63
2022-09-20T07:53:18.822Z,99791.16
2022-09-20T07:53:54.597Z,99788.03
2022-09-20T07:54:27.588Z,99789.59
2022-09-20T07:54:59.407Z,99785.59
2022-09-20T07:55:31.316Z,99790.66
2022-09-20T07:56:21.364Z,99793.53
2022-09-20T07:56:53.507Z,99793.53
2022-09-20T07:57:25.655Z,99789.06
2022-09-20T07:57:57.695Z,99786.16
2022-09-20T07:58:30.982Z,99792.53
2022-09-20T07:59:02.861Z,99788.56
2022-09-20T07:59:34.830Z,99798.34
2022-09-20T08:00:08.397Z,99798.84
2022-09-20T08:00:44.114Z,99801.25
2022-09-20T08:01:16.361Z,99799.16
2022-09-20T08:01:48.396Z,99795.19
2022-09-20T08:02:20.451Z,99802.31
2022-09-20T08:03:03.138Z,99799.69
2022-09-20T08:03:35.546Z,99794.38
2022-09-20T08:04:08.900Z,99792.75
2022-09-20T08:04:40.773Z,99794.34
2022-09-20T08:05:12.895Z,99793.78
2022-09-20T08:05:44.794Z,99795.09
2022-09-20T08:06:18.496Z,99798.84
2022-09-20T08:06:50.364Z,99798.00
2022-09-20T08:07:22.266Z,99802.84
2022-09-20T08:07:55.314Z,99801.25
2022-09-20T08:08:29.052Z,99799.88
2022-09-20T08:09:01.003Z,99799.12
2022-09-20T08:09:32.854Z,99798.06
2022-09-20T08:10:05.662Z,99797.53
2022-09-20T08:10:41.305Z,99793.31
2022-09-20T08:11:18.923Z,99799.69
2022-09-20T08:11:51.283Z,99806.56
2022-09-20T08:14:12.884Z,99805.94
2022-09-20T08:14:44.737Z,99804.91
2022-09-20T08:15:16.726Z,99798.56
2022-09-20T08:15:48.863Z,99802.53
2022-09-20T08:16:21.733Z,99802.22
2022-09-20T08:16:56.252Z,99798.97
2022-09-20T08:17:28.512Z,99802.66
2022-09-20T08:18:00.479Z,99805.22
2022-09-20T08:18:34.411Z,99797.56
2022-09-20T08:19:06.418Z,99804.00
2022-09-20T08:19:40.073Z,99798.19
2022-09-20T08:20:11.977Z,99805.38
2022-09-20T08:20:43.839Z,99801.69
2022-09-20T08:21:15.973Z,99810.16
2022-09-20T08:21:48.272Z,99806.50
2022-09-20T08:22:20.447Z,99802.25
2022-09-20T08:23:12.936Z,99797.81
2022-09-20T08:23:48.333Z,99799.16
2022-09-20T08:24:20.402Z,99793.56
2022-09-20T08:24:52.298Z,99799.16
2022-09-20T08:25:24.165Z,99796.75
2022-09-20T08:25:57.349Z,99796.50
2022-09-20T08:26:31.115Z,99799.41
2022-09-20T08:27:03.107Z,99799.91
2022-09-20T08:27:35.234Z,99796.16
2022-09-20T08:28:07.088Z,99799.59
2022-09-20T08:28:39.932Z,99800.63
2022-09-20T08:29:13.416Z,99804.31
2022-09-20T08:29:45.245Z,99800.91
2022-09-20T08:30:17.361Z,99793.53
2022-09-20T08:30:49.191Z,99795.91
2022-09-20T08:31:24.286Z,99792.25
2022-09-20T08:31:58.307Z,99799.66
2022-09-20T08:32:30.204Z,99793.84
2022-09-20T08:33:04.287Z,99797.53